sensor_id;sensor_type;location;lat;lon;timestamp;pressure;altitude;pressure_sealevel;temperature;humidity
15050;BME280;7622;42.724;23.250;2023-02-19T00:01:32;94980.59;;;7.26;95.56
15050;BME280;7622;42.724;23.250;2023-02-19T00:04:01;94969.19;;;7.29;95.95
15050;BME280;7622;42.724;23.250;2023-02-19T00:06:30;94962.75;;;7.12;97.05
15050;BME280;7622;42.724;23.250;2023-02-19T00:08:57;94956.88;;;7.21;96.53
15050;BME280;7622;42.724;23.250;2023-02-19T00:11:26;94957.47;;;7.25;95.65
15050;BME280;7622;42.724;23.250;2023-02-19T00:13:55;94961.59;;;7.49;92.66
15050;BME280;7622;42.724;23.250;2023-02-19T00:16:25;94954.06;;;7.46;91.30
15050;BME280;7622;42.724;23.250;2023-02-19T00:18:53;94954.19;;;7.45;91.64
15050;BME280;7622;42.724;23.250;2023-02-19T00:21:21;94956.28;;;7.40;91.82
15050;BME280;7622;42.724;23.250;2023-02-19T00:23:48;94951.25;;;7.49;90.73
15050;BME280;7622;42.724;23.250;2023-02-19T00:26:16;94945.59;;;7.33;94.06
15050;BME280;7622;42.724;23.250;2023-02-19T00:28:43;94942.31;;;7.42;92.63
15050;BME280;7622;42.724;23.250;2023-02-19T00:31:15;94949.50;;;7.39;93.31
15050;BME280;7622;42.724;23.250;2023-02-19T00:33:42;94948.19;;;7.44;92.67
15050;BME280;7622;42.724;23.250;2023-02-19T00:36:09;94937.38;;;7.28;94.67
15050;BME280;7622;42.724;23.250;2023-02-19T00:38:38;94936.78;;;7.36;93.83
15050;BME280;7622;42.724;23.250;2023-02-19T00:41:06;94935.72;;;7.27;95.32
15050;BME280;7622;42.724;23.250;2023-02-19T00:43:45;94910.16;;;7.24;94.94
15050;BME280;7622;42.724;23.250;2023-02-19T00:46:14;94921.88;;;7.50;92.74
15050;BME280;7622;42.724;23.250;2023-02-19T00:48:41;94908.25;;;7.48;91.92
15050;BME280;7622;42.724;23.250;2023-02-19T00:51:08;94908.97;;;7.39;93.30
15050;BME280;7622;42.724;23.250;2023-02-19T00:53:34;94898.84;;;7.47;91.14
15050;BME280;7622;42.724;23.250;2023-02-19T00:56:01;94901.53;;;7.57;90.39
15050;BME280;7622;42.724;23.250;2023-02-19T00:58:28;94910.59;;;7.74;87.94
15050;BME280;7622;42.724;23.250;2023-02-19T01:00:55;94912.72;;;7.58;90.29
15050;BME280;7622;42.724;23.250;2023-02-19T01:03:23;94874.81;;;7.25;91.60
15050;BME280;7622;42.724;23.250;2023-02-19T01:05:50;94907.06;;;7.64;89.30
15050;BME280;7622;42.724;23.250;2023-02-19T01:08:17;94912.09;;;7.76;86.56
15050;BME280;7622;42.724;23.250;2023-02-19T01:10:45;94916.22;;;7.79;85.93
15050;BME280;7622;42.724;23.250;2023-02-19T01:13:12;94909.16;;;7.81;85.31
15050;BME280;7622;42.724;23.250;2023-02-19T01:15:39;94893.91;;;7.67;86.10
15050;BME280;7622;42.724;23.250;2023-02-19T01:18:05;94912.91;;;7.77;86.36
15050;BME280;7622;42.724;23.250;2023-02-19T01:20:34;94909.75;;;7.62;87.06
15050;BME280;7622;42.724;23.250;2023-02-19T01:23:00;94916.47;;;7.42;90.04
15050;BME280;7622;42.724;23.250;2023-02-19T01:25:27;94904.75;;;7.05;95.55
15050;BME280;7622;42.724;23.250;2023-02-19T01:27:54;94908.22;;;6.93;97.63
15050;BME280;7622;42.724;23.250;2023-02-19T01:30:21;94920.44;;;6.91;99.94
15050;BME280;7622;42.724;23.250;2023-02-19T01:32:47;94922.81;;;7.05;98.80
15050;BME280;7622;42.724;23.250;2023-02-19T01:35:14;94920.00;;;6.97;99.91
15050;BME280;7622;42.724;23.250;2023-02-19T01:37:42;94920.44;;;7.02;100.00
15050;BME280;7622;42.724;23.250;2023-02-19T01:40:09;94928.91;;;7.04;99.52
15050;BME280;7622;42.724;23.250;2023-02-19T01:42:41;94941.38;;;7.10;99.38
15050;BME280;7622;42.724;23.250;2023-02-19T01:45:21;94943.59;;;7.03;100.00
15050;BME280;7622;42.724;23.250;2023-02-19T01:47:56;94946.63;;;7.08;100.00
15050;BME280;7622;42.724;23.250;2023-02-19T01:50:27;94945.09;;;6.95;100.00
15050;BME280;7622;42.724;23.250;2023-02-19T01:52:56;94927.72;;;7.08;100.00
15050;BME280;7622;42.724;23.250;2023-02-19T01:55:24;94925.88;;;7.21;98.55
15050;BME280;7622;42.724;23.250;2023-02-19T01:57:53;94931.63;;;7.47;95.56
15050;BME280;7622;42.724;23.250;2023-02-19T02:00:21;94932.53;;;7.68;92.28
15050;BME280;7622;42.724;23.250;2023-02-19T02:02:53;94935.78;;;8.04;86.07
15050;BME280;7622;42.724;23.250;2023-02-19T02:05:28;94945.50;;;8.22;83.37
15050;BME280;7622;42.724;23.250;2023-02-19T02:08:01;94945.00;;;8.40;80.06
15050;BME280;7622;42.724;23.250;2023-02-19T02:10:46;94935.28;;;8.53;78.20
15050;BME280;7622;42.724;23.250;2023-02-19T02:13:12;94935.06;;;8.56;77.88
15050;BME280;7622;42.724;23.250;2023-02-19T02:15:45;94943.03;;;8.64;76.81
15050;BME280;7622;42.724;23.250;2023-02-19T02:18:22;94905.66;;;8.14;79.61
15050;BME280;7622;42.724;23.250;2023-02-19T02:21:03;94946.66;;;8.29;80.55
15050;BME280;7622;42.724;23.250;2023-02-19T02:23:40;94949.31;;;8.07;84.02
15050;BME280;7622;42.724;23.250;2023-02-19T02:26:34;94950.06;;;7.87;87.10
15050;BME280;7622;42.724;23.250;2023-02-19T02:29:27;94963.09;;;7.63;90.62
15050;BME280;7622;42.724;23.250;2023-02-19T02:32:02;94960.97;;;7.35;94.84
15050;BME280;7622;42.724;23.250;2023-02-19T02:34:40;94945.00;;;7.41;92.97
15050;BME280;7622;42.724;23.250;2023-02-19T02:37:08;94956.88;;;7.43;93.99
15050;BME280;7622;42.724;23.250;2023-02-19T02:39:35;94957.72;;;7.33;98.02
15050;BME280;7622;42.724;23.250;2023-02-19T02:42:03;94962.16;;;7.31;97.46
15050;BME280;7622;42.724;23.250;2023-02-19T02:44:48;94962.75;;;7.12;98.72
15050;BME280;7622;42.724;23.250;2023-02-19T02:47:33;94958.72;;;7.19;97.77
15050;BME280;7622;42.724;23.250;2023-02-19T02:50:08;94963.47;;;7.25;96.89
15050;BME280;7622;42.724;23.250;2023-02-19T02:52:39;94966.03;;;7.47;93.53
15050;BME280;7622;42.724;23.250;2023-02-19T02:55:29;94963.94;;;7.53;91.16
15050;BME280;7622;42.724;23.250;2023-02-19T02:57:56;94963.81;;;7.54;90.22
15050;BME280;7622;42.724;23.250;2023-02-19T03:00:24;94969.22;;;7.51;89.77
15050;BME280;7622;42.724;23.250;2023-02-19T03:03:14;94969.22;;;7.62;89.09
15050;BME280;7622;42.724;23.250;2023-02-19T03:05:42;94971.91;;;7.49;90.31
15050;BME280;7622;42.724;23.250;2023-02-19T03:08:23;94972.97;;;7.58;89.54
15050;BME280;7622;42.724;23.250;2023-02-19T03:10:56;94974.50;;;7.38;91.55
15050;BME280;7622;42.724;23.250;2023-02-19T03:13:46;94974.69;;;7.13;96.49
15050;BME280;7622;42.724;23.250;2023-02-19T03:16:32;94971.25;;;6.90;99.96
15050;BME280;7622;42.724;23.250;2023-02-19T03:19:19;94972.50;;;6.73;100.00
15050;BME280;7622;42.724;23.250;2023-02-19T03:21:51;94977.34;;;6.54;100.00
15050;BME280;7622;42.724;23.250;2023-02-19T03:24:23;94978.94;;;6.68;100.00
15050;BME280;7622;42.724;23.250;2023-02-19T03:27:11;94941.31;;;6.42;100.00
15050;BME280;7622;42.724;23.250;2023-02-19T03:29:40;94999.31;;;6.60;100.00
15050;BME280;7622;42.724;23.250;2023-02-19T03:32:11;94992.56;;;6.46;100.00
15050;BME280;7622;42.724;23.250;2023-02-19T03:34:47;94997.44;;;6.62;100.00
15050;BME280;7622;42.724;23.250;2023-02-19T03:37:19;95000.03;;;6.62;100.00
15050;BME280;7622;42.724;23.250;2023-02-19T03:39:50;95004.19;;;6.52;100.00
15050;BME280;7622;42.724;23.250;2023-02-19T03:42:26;95013.41;;;6.67;100.00
15050;BME280;7622;42.724;23.250;2023-02-19T03:45:18;95002.28;;;6.66;100.00
15050;BME280;7622;42.724;23.250;2023-02-19T03:47:51;94994.53;;;6.66;100.00
15050;BME280;7622;42.724;23.250;2023-02-19T03:50:23;95011.19;;;6.62;100.00
15050;BME280;7622;42.724;23.250;2023-02-19T03:52:59;95018.41;;;6.57;100.00
15050;BME280;7622;42.724;23.250;2023-02-19T03:55:35;95017.47;;;6.58;100.00
15050;BME280;7622;42.724;23.250;2023-02-19T03:58:10;95020.94;;;6.70;100.00
15050;BME280;7622;42.724;23.250;2023-02-19T04:00:43;95020.69;;;6.62;100.00
15050;BME280;7622;42.724;23.250;2023-02-19T04:03:17;95020.44;;;6.65;100.00
15050;BME280;7622;42.724;23.250;2023-02-19T04:05:51;95024.78;;;6.64;100.00
15050;BME280;7622;42.724;23.250;2023-02-19T04:08:21;95019.19;;;6.70;100.00
15050;BME280;7622;42.724;23.250;2023-02-19T04:10:50;95031.91;;;6.85;100.00
15050;BME280;7622;42.724;23.250;2023-02-19T04:13:20;95015.53;;;6.97;99.40
15050;BME280;7622;42.724;23.250;2023-02-19T04:15:49;95014.09;;;6.93;99.51
15050;BME280;7622;42.724;23.250;2023-02-19T04:18:19;95029.59;;;6.93;99.25
15050;BME280;7622;42.724;23.250;2023-02-19T04:20:49;95034.66;;;7.05;97.99
15050;BME280;7622;42.724;23.250;2023-02-19T04:23:19;95039.97;;;7.04;99.69
15050;BME280;7622;42.724;23.250;2023-02-19T04:25:59;95020.72;;;7.08;98.61
15050;BME280;7622;42.724;23.250;2023-02-19T04:28:27;95025.66;;;7.11;99.25
15050;BME280;7622;42.724;23.250;2023-02-19T04:30:54;95032.72;;;7.20;98.68
15050;BME280;7622;42.724;23.250;2023-02-19T04:33:21;95030.16;;;7.31;96.80
15050;BME280;7622;42.724;23.250;2023-02-19T04:35:49;95027.69;;;7.30;97.41
15050;BME280;7622;42.724;23.250;2023-02-19T04:38:16;95036.94;;;7.10;100.00
15050;BME280;7622;42.724;23.250;2023-02-19T04:40:42;95039.16;;;7.15;100.00
15050;BME280;7622;42.724;23.250;2023-02-19T04:43:09;95038.00;;;7.19;99.61
15050;BME280;7622;42.724;23.250;2023-02-19T04:45:36;95057.34;;;7.13;100.00
15050;BME280;7622;42.724;23.250;2023-02-19T04:48:03;95057.50;;;7.23;100.00
15050;BME280;7622;42.724;23.250;2023-02-19T04:50:30;95041.38;;;7.19;99.17
15050;BME280;7622;42.724;23.250;2023-02-19T04:52:58;95054.63;;;7.38;97.46
15050;BME280;7622;42.724;23.250;2023-02-19T04:55:25;95053.88;;;7.25;98.56
15050;BME280;7622;42.724;23.250;2023-02-19T04:57:52;95049.66;;;7.24;99.89
15050;BME280;7622;42.724;23.250;2023-02-19T05:00:19;95054.34;;;7.30;98.23
15050;BME280;7622;42.724;23.250;2023-02-19T05:02:46;95052.91;;;7.26;97.89
15050;BME280;7622;42.724;23.250;2023-02-19T05:05:12;95047.06;;;7.35;98.77
15050;BME280;7622;42.724;23.250;2023-02-19T05:07:39;95055.19;;;7.42;95.98
15050;BME280;7622;42.724;23.250;2023-02-19T05:10:07;95061.91;;;7.44;95.68
15050;BME280;7622;42.724;23.250;2023-02-19T05:12:34;95048.72;;;7.36;96.16
15050;BME280;7622;42.724;23.250;2023-02-19T05:15:01;94994.25;;;6.93;96.66
15050;BME280;7622;42.724;23.250;2023-02-19T05:17:28;95061.91;;;7.44;94.70
15050;BME280;7622;42.724;23.250;2023-02-19T05:19:54;95057.94;;;7.63;92.88
15050;BME280;7622;42.724;23.250;2023-02-19T05:22:21;95061.81;;;7.57;90.26
15050;BME280;7622;42.724;23.250;2023-02-19T05:24:48;95058.91;;;7.73;88.03
15050;BME280;7622;42.724;23.250;2023-02-19T05:27:16;95033.72;;;7.64;86.04
15050;BME280;7622;42.724;23.250;2023-02-19T05:29:42;95057.94;;;7.85;84.98
15050;BME280;7622;42.724;23.250;2023-02-19T05:32:09;95051.81;;;7.97;83.75
15050;BME280;7622;42.724;23.250;2023-02-19T05:34:36;95064.44;;;8.02;81.98
15050;BME280;7622;42.724;23.250;2023-02-19T05:37:03;95063.59;;;8.01;82.73
15050;BME280;7622;42.724;23.250;2023-02-19T05:39:29;94965.00;;;7.50;82.41
15050;BME280;7622;42.724;23.250;2023-02-19T05:41:56;95062.88;;;8.21;81.52
15050;BME280;7622;42.724;23.250;2023-02-19T05:44:25;95071.38;;;8.35;79.99
15050;BME280;7622;42.724;23.250;2023-02-19T05:46:51;95068.41;;;8.28;79.83
15050;BME280;7622;42.724;23.250;2023-02-19T05:49:18;95073.13;;;8.34;79.38
15050;BME280;7622;42.724;23.250;2023-02-19T05:51:45;95068.97;;;8.54;76.93
15050;BME280;7622;42.724;23.250;2023-02-19T05:54:15;95069.19;;;8.51;75.69
15050;BME280;7622;42.724;23.250;2023-02-19T05:56:42;95078.78;;;8.82;73.88
15050;BME280;7622;42.724;23.250;2023-02-19T05:59:14;95091.91;;;9.01;73.56
15050;BME280;7622;42.724;23.250;2023-02-19T06:01:42;95057.34;;;8.91;71.84
15050;BME280;7622;42.724;23.250;2023-02-19T06:04:10;95096.56;;;9.19;70.03
15050;BME280;7622;42.724;23.250;2023-02-19T06:06:37;95108.13;;;9.35;70.54
15050;BME280;7622;42.724;23.250;2023-02-19T06:09:05;95068.81;;;9.30;68.71
15050;BME280;7622;42.724;23.250;2023-02-19T06:11:32;95095.56;;;9.72;66.75
15050;BME280;7622;42.724;23.250;2023-02-19T06:13:59;95108.78;;;9.48;67.90
15050;BME280;7622;42.724;23.250;2023-02-19T06:16:26;95087.78;;;9.31;67.56
15050;BME280;7622;42.724;23.250;2023-02-19T06:18:55;95029.06;;;8.88;67.98
15050;BME280;7622;42.724;23.250;2023-02-19T06:21:22;95111.34;;;10.11;100.00
15050;BME280;7622;42.724;23.250;2023-02-19T06:23:49;95112.75;;;10.15;71.89
15050;BME280;7622;42.724;23.250;2023-02-19T06:26:17;95112.06;;;9.92;70.98
15050;BME280;7622;42.724;23.250;2023-02-19T06:28:44;95111.88;;;9.63;71.39
15050;BME280;7622;42.724;23.250;2023-02-19T06:31:12;95108.47;;;9.83;70.50
15050;BME280;7622;42.724;23.250;2023-02-19T06:33:39;95116.25;;;9.63;71.54
15050;BME280;7622;42.724;23.250;2023-02-19T06:36:10;95090.59;;;9.60;72.10
15050;BME280;7622;42.724;23.250;2023-02-19T06:38:37;95117.97;;;9.73;72.48
15050;BME280;7622;42.724;23.250;2023-02-19T06:41:05;95119.72;;;9.94;72.36
15050;BME280;7622;42.724;23.250;2023-02-19T06:43:32;95126.94;;;9.69;73.89
15050;BME280;7622;42.724;23.250;2023-02-19T06:46:01;95121.94;;;9.77;74.20
15050;BME280;7622;42.724;23.250;2023-02-19T06:48:31;95127.13;;;9.98;73.96
15050;BME280;7622;42.724;23.250;2023-02-19T06:50:59;95119.00;;;10.33;71.25
15050;BME280;7622;42.724;23.250;2023-02-19T06:53:28;95117.75;;;10.27;71.31
15050;BME280;7622;42.724;23.250;2023-02-19T06:55:56;95108.94;;;10.19;71.63
15050;BME280;7622;42.724;23.250;2023-02-19T06:58:23;95131.31;;;10.41;70.93
15050;BME280;7622;42.724;23.250;2023-02-19T07:00:50;95108.97;;;10.59;69.30
15050;BME280;7622;42.724;23.250;2023-02-19T07:03:17;95132.56;;;10.96;67.38
15050;BME280;7622;42.724;23.250;2023-02-19T07:05:44;95131.00;;;11.33;65.99
15050;BME280;7622;42.724;23.250;2023-02-19T07:08:11;95134.44;;;11.82;64.76
15050;BME280;7622;42.724;23.250;2023-02-19T07:10:39;95130.16;;;12.37;62.16
15050;BME280;7622;42.724;23.250;2023-02-19T07:13:06;95130.13;;;12.47;61.31
15050;BME280;7622;42.724;23.250;2023-02-19T07:15:33;95125.94;;;12.63;60.66
15050;BME280;7622;42.724;23.250;2023-02-19T07:17:59;95126.16;;;12.97;59.32
15050;BME280;7622;42.724;23.250;2023-02-19T07:20:26;95119.91;;;13.53;58.20
15050;BME280;7622;42.724;23.250;2023-02-19T07:22:53;95116.38;;;14.32;55.70
15050;BME280;7622;42.724;23.250;2023-02-19T07:25:19;95111.97;;;14.58;54.37
15050;BME280;7622;42.724;23.250;2023-02-19T07:27:49;95104.78;;;15.02;53.71
15050;BME280;7622;42.724;23.250;2023-02-19T07:30:16;95116.31;;;15.42;52.55
15050;BME280;7622;42.724;23.250;2023-02-19T07:32:43;95111.28;;;15.72;51.30
15050;BME280;7622;42.724;23.250;2023-02-19T07:35:10;95108.47;;;16.06;50.61
15050;BME280;7622;42.724;23.250;2023-02-19T07:37:37;95099.91;;;16.45;50.03
15050;BME280;7622;42.724;23.250;2023-02-19T07:40:04;95100.47;;;17.10;49.46
15050;BME280;7622;42.724;23.250;2023-02-19T07:42:31;95098.53;;;16.57;49.73
15050;BME280;7622;42.724;23.250;2023-02-19T07:45:00;95102.16;;;17.34;48.81
15050;BME280;7622;42.724;23.250;2023-02-19T07:47:28;95097.69;;;17.57;47.94
15050;BME280;7622;42.724;23.250;2023-02-19T07:49:54;95095.44;;;17.54;48.17
15050;BME280;7622;42.724;23.250;2023-02-19T07:52:21;95084.69;;;17.87;53.91
15050;BME280;7622;42.724;23.250;2023-02-19T07:54:48;95087.22;;;18.18;46.78
15050;BME280;7622;42.724;23.250;2023-02-19T07:57:15;95091.41;;;18.41;45.91
15050;BME280;7622;42.724;23.250;2023-02-19T07:59:41;95083.34;;;18.87;44.79
15050;BME280;7622;42.724;23.250;2023-02-19T08:02:14;95086.50;;;18.97;44.10
15050;BME280;7622;42.724;23.250;2023-02-19T08:04:59;95090.03;;;19.04;43.68
15050;BME280;7622;42.724;23.250;2023-02-19T08:07:30;95075.56;;;19.72;42.69
15050;BME280;7622;42.724;23.250;2023-02-19T08:09:57;95084.84;;;19.89;41.98
15050;BME280;7622;42.724;23.250;2023-02-19T08:12:54;95087.38;;;19.55;42.53
15050;BME280;7622;42.724;23.250;2023-02-19T08:15:38;95091.34;;;20.15;41.58
15050;BME280;7622;42.724;23.250;2023-02-19T08:18:06;95093.72;;;20.59;40.79
15050;BME280;7622;42.724;23.250;2023-02-19T08:20:33;95083.91;;;19.97;41.65
15050;BME280;7622;42.724;23.250;2023-02-19T08:23:00;95085.22;;;19.86;41.71
15050;BME280;7622;42.724;23.250;2023-02-19T08:25:26;95087.31;;;20.19;41.36
15050;BME280;7622;42.724;23.250;2023-02-19T08:27:53;95087.72;;;19.94;40.94
15050;BME280;7622;42.724;23.250;2023-02-19T08:30:21;95081.88;;;19.50;41.79
15050;BME280;7622;42.724;23.250;2023-02-19T08:32:47;95078.91;;;19.23;42.07
15050;BME280;7622;42.724;23.250;2023-02-19T08:35:16;95082.53;;;19.22;42.15
15050;BME280;7622;42.724;23.250;2023-02-19T08:37:43;95087.06;;;20.14;41.27
15050;BME280;7622;42.724;23.250;2023-02-19T08:40:10;95076.38;;;20.22;40.79
15050;BME280;7622;42.724;23.250;2023-02-19T08:42:37;95077.63;;;20.26;40.66
15050;BME280;7622;42.724;23.250;2023-02-19T08:45:05;95070.69;;;20.46;40.62
15050;BME280;7622;42.724;23.250;2023-02-19T08:47:35;95075.81;;;20.61;40.17
15050;BME280;7622;42.724;23.250;2023-02-19T08:50:04;95069.00;;;20.11;41.04
15050;BME280;7622;42.724;23.250;2023-02-19T08:52:33;95063.38;;;20.20;40.81
15050;BME280;7622;42.724;23.250;2023-02-19T08:55:00;95064.47;;;20.60;40.28
15050;BME280;7622;42.724;23.250;2023-02-19T08:57:27;95040.88;;;20.52;40.50
15050;BME280;7622;42.724;23.250;2023-02-19T08:59:54;95058.94;;;20.96;40.13
15050;BME280;7622;42.724;23.250;2023-02-19T09:02:21;95056.06;;;20.84;40.12
15050;BME280;7622;42.724;23.250;2023-02-19T09:04:48;95049.91;;;20.71;40.07
15050;BME280;7622;42.724;23.250;2023-02-19T09:07:15;95052.56;;;21.25;39.79
15050;BME280;7622;42.724;23.250;2023-02-19T09:09:44;95048.13;;;21.45;39.75
15050;BME280;7622;42.724;23.250;2023-02-19T09:12:11;95042.00;;;20.77;40.44
15050;BME280;7622;42.724;23.250;2023-02-19T09:14:38;95033.38;;;21.03;40.22
15050;BME280;7622;42.724;23.250;2023-02-19T09:17:06;95043.19;;;21.16;39.88
15050;BME280;7622;42.724;23.250;2023-02-19T09:19:34;95034.91;;;21.39;39.55
15050;BME280;7622;42.724;23.250;2023-02-19T09:22:02;95042.47;;;21.61;39.15
15050;BME280;7622;42.724;23.250;2023-02-19T09:24:29;95032.72;;;22.21;38.43
15050;BME280;7622;42.724;23.250;2023-02-19T09:26:57;95043.31;;;21.95;38.86
15050;BME280;7622;42.724;23.250;2023-02-19T09:29:25;95037.38;;;21.67;39.25
15050;BME280;7622;42.724;23.250;2023-02-19T09:31:55;95026.66;;;22.01;38.48
15050;BME280;7622;42.724;23.250;2023-02-19T09:34:22;95029.66;;;21.72;39.08
15050;BME280;7622;42.724;23.250;2023-02-19T09:36:49;95039.63;;;21.43;39.40
15050;BME280;7622;42.724;23.250;2023-02-19T09:39:16;95034.16;;;21.91;38.83
15050;BME280;7622;42.724;23.250;2023-02-19T09:41:45;95031.06;;;21.41;39.41
15050;BME280;7622;42.724;23.250;2023-02-19T09:44:19;95035.69;;;21.19;39.68
15050;BME280;7622;42.724;23.250;2023-02-19T09:46:47;95032.25;;;21.32;39.82
15050;BME280;7622;42.724;23.250;2023-02-19T09:49:17;95019.88;;;20.78;40.17
15050;BME280;7622;42.724;23.250;2023-02-19T09:51:48;95027.59;;;21.28;39.70
15050;BME280;7622;42.724;23.250;2023-02-19T09:54:20;95009.53;;;21.84;39.32
15050;BME280;7622;42.724;23.250;2023-02-19T09:56:47;94996.09;;;21.66;39.47
15050;BME280;7622;42.724;23.250;2023-02-19T09:59:19;95002.41;;;21.65;39.07
15050;BME280;7622;42.724;23.250;2023-02-19T10:01:48;94997.25;;;21.23;39.17
15050;BME280;7622;42.724;23.250;2023-02-19T10:04:18;94994.19;;;21.13;38.83
15050;BME280;7622;42.724;23.250;2023-02-19T10:06:45;94985.94;;;21.36;38.30
15050;BME280;7622;42.724;23.250;2023-02-19T10:09:20;94977.00;;;21.96;37.72
15050;BME280;7622;42.724;23.250;2023-02-19T10:11:47;94977.19;;;21.29;38.42
15050;BME280;7622;42.724;23.250;2023-02-19T10:14:18;94973.75;;;20.74;38.84
15050;BME280;7622;42.724;23.250;2023-02-19T10:16:49;94967.13;;;21.05;39.10
15050;BME280;7622;42.724;23.250;2023-02-19T10:19:16;94953.72;;;21.13;38.72
15050;BME280;7622;42.724;23.250;2023-02-19T10:21:43;94961.09;;;21.44;38.42
15050;BME280;7622;42.724;23.250;2023-02-19T10:24:15;94945.25;;;21.64;37.76
15050;BME280;7622;42.724;23.250;2023-02-19T10:26:45;94943.22;;;21.52;38.14
15050;BME280;7622;42.724;23.250;2023-02-19T10:29:12;94942.00;;;21.48;37.85
15050;BME280;7622;42.724;23.250;2023-02-19T10:31:40;94943.16;;;21.00;38.39
15050;BME280;7622;42.724;23.250;2023-02-19T10:34:16;94926.69;;;20.98;38.37
15050;BME280;7622;42.724;23.250;2023-02-19T10:36:46;94930.91;;;20.72;38.93
15050;BME280;7622;42.724;23.250;2023-02-19T10:39:33;94897.22;;;20.94;38.22
15050;BME280;7622;42.724;23.250;2023-02-19T10:42:03;94907.44;;;21.43;38.19
15050;BME280;7622;42.724;23.250;2023-02-19T10:44:37;94889.31;;;21.60;37.58
15050;BME280;7622;42.724;23.250;2023-02-19T10:47:14;94892.13;;;21.72;37.48
15050;BME280;7622;42.724;23.250;2023-02-19T10:49:42;94895.59;;;21.79;37.35
15050;BME280;7622;42.724;23.250;2023-02-19T10:52:12;94875.91;;;21.48;37.59
15050;BME280;7622;42.724;23.250;2023-02-19T10:54:42;94866.78;;;21.18;37.97
15050;BME280;7622;42.724;23.250;2023-02-19T10:57:25;94858.25;;;21.29;37.69
15050;BME280;7622;42.724;23.250;2023-02-19T10:59:59;94871.44;;;21.62;37.44
15050;BME280;7622;42.724;23.250;2023-02-19T11:02:29;94864.53;;;21.08;37.72
15050;BME280;7622;42.724;23.250;2023-02-19T11:05:13;94853.69;;;20.70;38.63
15050;BME280;7622;42.724;23.250;2023-02-19T11:07:43;94860.06;;;21.09;38.23
15050;BME280;7622;42.724;23.250;2023-02-19T11:10:19;94853.16;;;21.21;38.17
15050;BME280;7622;42.724;23.250;2023-02-19T11:12:48;94853.72;;;20.90;38.41
15050;BME280;7622;42.724;23.250;2023-02-19T11:15:20;94842.75;;;21.52;37.41
15050;BME280;7622;42.724;23.250;2023-02-19T11:18:16;94833.38;;;21.70;37.25
15050;BME280;7622;42.724;23.250;2023-02-19T11:20:47;94829.72;;;21.71;37.44
15050;BME280;7622;42.724;23.250;2023-02-19T11:23:17;94826.88;;;21.59;36.99
15050;BME280;7622;42.724;23.250;2023-02-19T11:25:47;94823.09;;;22.13;36.87
15050;BME280;7622;42.724;23.250;2023-02-19T11:28:31;94808.09;;;22.38;36.72
15050;BME280;7622;42.724;23.250;2023-02-19T11:31:22;94780.19;;;22.35;36.44
15050;BME280;7622;42.724;23.250;2023-02-19T11:33:55;94800.91;;;22.45;35.46
15050;BME280;7622;42.724;23.250;2023-02-19T11:36:31;94803.59;;;22.70;35.18
15050;BME280;7622;42.724;23.250;2023-02-19T11:39:04;94732.09;;;22.07;35.48
15050;BME280;7622;42.724;23.250;2023-02-19T11:42:07;94787.97;;;22.62;35.34
15050;BME280;7622;42.724;23.250;2023-02-19T11:44:43;94775.06;;;22.72;35.25
15050;BME280;7622;42.724;23.250;2023-02-19T11:47:37;94781.06;;;22.92;34.99
15050;BME280;7622;42.724;23.250;2023-02-19T11:50:15;94774.69;;;23.43;34.62
15050;BME280;7622;42.724;23.250;2023-02-19T11:52:54;94777.81;;;22.59;35.07
15050;BME280;7622;42.724;23.250;2023-02-19T11:55:35;94767.81;;;22.92;34.80
15050;BME280;7622;42.724;23.250;2023-02-19T11:58:20;94767.56;;;23.18;34.07
15050;BME280;7622;42.724;23.250;2023-02-19T12:00:57;94763.53;;;22.91;34.09
15050;BME280;7622;42.724;23.250;2023-02-19T12:03:43;94760.13;;;22.84;34.19
15050;BME280;7622;42.724;23.250;2023-02-19T12:06:23;94758.41;;;22.02;35.07
15050;BME280;7622;42.724;23.250;2023-02-19T12:09:20;94750.16;;;22.48;34.71
15050;BME280;7622;42.724;23.250;2023-02-19T12:12:01;94740.03;;;22.70;34.44
15050;BME280;7622;42.724;23.250;2023-02-19T12:14:50;94738.72;;;22.86;34.24
15050;BME280;7622;42.724;23.250;2023-02-19T12:17:35;94739.47;;;22.68;34.35
15050;BME280;7622;42.724;23.250;2023-02-19T12:20:11;94727.47;;;22.03;35.30
15050;BME280;7622;42.724;23.250;2023-02-19T12:22:50;94720.53;;;22.02;34.93
15050;BME280;7622;42.724;23.250;2023-02-19T12:25:43;94707.97;;;21.90;35.17
15050;BME280;7622;42.724;23.250;2023-02-19T12:28:30;94710.50;;;21.66;35.50
15050;BME280;7622;42.724;23.250;2023-02-19T12:31:26;94710.66;;;21.26;35.62
15050;BME280;7622;42.724;23.250;2023-02-19T12:34:17;94710.28;;;20.96;36.13
15050;BME280;7622;42.724;23.250;2023-02-19T12:36:57;94699.75;;;20.70;36.45
15050;BME280;7622;42.724;23.250;2023-02-19T12:39:36;94690.03;;;20.64;35.80
15050;BME280;7622;42.724;23.250;2023-02-19T12:42:10;94686.78;;;20.55;36.52
15050;BME280;7622;42.724;23.250;2023-02-19T12:44:45;94677.66;;;20.38;36.83
15050;BME280;7622;42.724;23.250;2023-02-19T12:47:18;94669.28;;;20.21;36.82
15050;BME280;7622;42.724;23.250;2023-02-19T12:49:48;94661.56;;;20.26;36.96
15050;BME280;7622;42.724;23.250;2023-02-19T12:52:19;94663.03;;;20.42;36.84
15050;BME280;7622;42.724;23.250;2023-02-19T12:54:52;94655.88;;;20.10;37.37
15050;BME280;7622;42.724;23.250;2023-02-19T12:57:21;94646.94;;;19.91;37.63
15050;BME280;7622;42.724;23.250;2023-02-19T12:59:53;94644.53;;;20.02;37.36
15050;BME280;7622;42.724;23.250;2023-02-19T13:02:24;94638.84;;;20.12;37.19
15050;BME280;7622;42.724;23.250;2023-02-19T13:04:57;94616.94;;;20.18;37.05
15050;BME280;7622;42.724;23.250;2023-02-19T13:07:30;94628.69;;;20.09;37.09
15050;BME280;7622;42.724;23.250;2023-02-19T13:10:11;94635.38;;;19.98;37.45
15050;BME280;7622;42.724;23.250;2023-02-19T13:12:43;94629.72;;;20.01;37.64
15050;BME280;7622;42.724;23.250;2023-02-19T13:15:14;94624.63;;;20.20;37.33
15050;BME280;7622;42.724;23.250;2023-02-19T13:17:44;94610.84;;;20.11;37.42
15050;BME280;7622;42.724;23.250;2023-02-19T13:20:24;94611.66;;;20.25;37.43
15050;BME280;7622;42.724;23.250;2023-02-19T13:22:59;94617.34;;;20.35;37.25
15050;BME280;7622;42.724;23.250;2023-02-19T13:25:57;94598.47;;;20.12;37.12
15050;BME280;7622;42.724;23.250;2023-02-19T13:28:42;94598.88;;;20.09;37.46